Gas Snapper — V7TZ3 — position and weather

sailwx.info

Track history (hours):
 
Tides and Currents Weather Stations Pressure Air Temp Water Temp Dewpoint Dewpoint Depression Visibility Wind Speed Wind Dir Waves Ship Positions

Gas Snapper

Last reported at 2014-Sep-15 03:06 UTC. Time now 2014-Sep-17 23:37 UTC.
Position N 41°02' E 028°60'.

Length 174 m; draft 6.3 m.

Type: Ship (hazmat cat D). MMSI: 538003911.

Date/timePositionNaut miles runAvg speedWind from/ knotsBaromVisibWave heightAir tempDewpointWater temp
2014-Sep-15 03:06N 41°02' E 028°60'5 9.3
2014-Sep-15 02:33N 40°56' E 028°59'1111.3
2014-Sep-15 01:33N 40°50' E 028°46'1 0.4
2014-Sep-14 22:27N 40°49' E 028°45'1 0.8
2014-Sep-14 21:17N 40°50' E 028°46'1 0.8
2014-Sep-14 20:19N 40°49' E 028°47'1 1.0
2014-Sep-14 19:05N 40°49' E 028°49'1 1.2
2014-Sep-14 18:21N 40°49' E 028°50'1 1.1
2014-Sep-14 17:25N 40°49' E 028°51'7 8.0
2014-Sep-14 16:33N 40°44' E 028°45'1 0.9
2014-Sep-14 15:33N 40°44' E 028°46'2 1.6
2014-Sep-14 14:33N 40°45' E 028°48'2 1.6
2014-Sep-14 13:33N 40°46' E 028°49'2 1.5
2014-Sep-14 12:33N 40°47' E 028°51'1 1.4
2014-Sep-14 11:33N 40°48' E 028°52'1 1.1
2014-Sep-14 10:33N 40°49' E 028°53'1 0.7
2014-Sep-14 09:33N 40°49' E 028°54'1 0.8
2014-Sep-14 08:33N 40°50' E 028°54'1 0.7
2014-Sep-14 07:34N 40°50' E 028°55'2 2.1
2014-Sep-14 06:33N 40°49' E 028°53'5 5.0
2014-Sep-14 05:33N 40°49' E 028°46'143 8.9
2014-Sep-13 13:26N 39°47' E 025°57'0 0.0
2014-Sep-13 12:33N 39°47' E 025°57'0 0.0
2014-Sep-13 11:33N 39°47' E 025°57'32 4.0
2014-Sep-13 03:28N 39°21' E 025°32'3115.3
2014-Sep-13 01:26N 38°53' E 025°14'3215.5
2014-Sep-12 23:24N 38°25' E 024°55'1315.4
2014-Sep-12 22:32N 38°13' E 024°48'2015.8
2014-Sep-12 21:17N 37°55' E 024°37'1115.4
2014-Sep-12 20:33N 37°44' E 024°33'1515.4
2014-Sep-12 19:33N 37°31' E 024°23'1615.3
2014-Sep-12 18:30N 37°17' E 024°13'1515.5
2014-Sep-12 17:33N 37°03' E 024°08'1615.3
2014-Sep-12 16:32N 36°48' E 024°01'1414.8
2014-Sep-12 15:33N 36°38' E 023°48'1715.6
2014-Sep-12 14:30N 36°29' E 023°31'3014.1
2014-Sep-12 12:22N 36°25' E 022°54'52515.9
2014-Sep-11 03:24N 37°01' E 012°00'9816.6
2014-Sep-10 21:31N 37°35' E 010°05'1717.3
2014-Sep-10 20:33N 37°36' E 009°44'1717.1
2014-Sep-10 19:33N 37°37' E 009°23'3416.7
2014-Sep-10 17:33N 37°36' E 008°40'19916.4
2014-Sep-10 05:26N 37°12' E 004°32'3617.2
2014-Sep-10 03:19N 37°07' E 003°47'1616.6
2014-Sep-10 02:22N 37°05' E 003°27'1517.7
2014-Sep-10 01:32N 37°03' E 003°09'1818.1
2014-Sep-10 00:33N 37°00' E 002°47'1717.3
2014-Sep-09 23:33N 36°58' E 002°25'8316.5
2014-Sep-09 18:33N 36°45' E 000°43'1716.6
2014-Sep-09 17:31N 36°43' E 000°22'1616.2
2014-Sep-09 16:33N 36°40' E 000°03'1616.0
2014-Sep-09 15:32N 36°38' W 000°17'1716.3
2014-Sep-09 14:30N 36°35' W 000°38'22811.1
2014-Sep-08 18:03N 36°05' W 005°18'1 2.7
2014-Sep-08 17:33N 36°05' W 005°16'7 3.0
2014-Sep-08 15:10N 35°60' W 005°22'  
2014-Sep-05 18:32N 36°01' W 005°22'  
Track history (hours):
 
Tides and Currents Weather Stations Pressure Air Temp Water Temp Dewpoint Dewpoint Depression Visibility Wind Speed Wind Dir Waves Ship Positions

Gas Snapper

Last reported at 2014-Sep-15 03:06 UTC. Time now 2014-Sep-17 23:37 UTC.
Position N 41°02' E 028°60'.

Length 174 m; draft 6.3 m.

Type: Ship (hazmat cat D). MMSI: 538003911.

Date/timePositionNaut miles runAvg speedWind from/ knotsBaromVisibWave heightAir tempDewpointWater temp
2014-Sep-15 03:06N 41°02' E 028°60'5 9.3
2014-Sep-15 02:33N 40°56' E 028°59'1111.3
2014-Sep-15 01:33N 40°50' E 028°46'1 0.4
2014-Sep-14 22:27N 40°49' E 028°45'1 0.8
2014-Sep-14 21:17N 40°50' E 028°46'1 0.8
2014-Sep-14 20:19N 40°49' E 028°47'1 1.0
2014-Sep-14 19:05N 40°49' E 028°49'1 1.2
2014-Sep-14 18:21N 40°49' E 028°50'1 1.1
2014-Sep-14 17:25N 40°49' E 028°51'7 8.0
2014-Sep-14 16:33N 40°44' E 028°45'1 0.9
2014-Sep-14 15:33N 40°44' E 028°46'2 1.6
2014-Sep-14 14:33N 40°45' E 028°48'2 1.6
2014-Sep-14 13:33N 40°46' E 028°49'2 1.5
2014-Sep-14 12:33N 40°47' E 028°51'1 1.4
2014-Sep-14 11:33N 40°48' E 028°52'1 1.1
2014-Sep-14 10:33N 40°49' E 028°53'1 0.7
2014-Sep-14 09:33N 40°49' E 028°54'1 0.8
2014-Sep-14 08:33N 40°50' E 028°54'1 0.7
2014-Sep-14 07:34N 40°50' E 028°55'2 2.1
2014-Sep-14 06:33N 40°49' E 028°53'5 5.0
2014-Sep-14 05:33N 40°49' E 028°46'143 8.9
2014-Sep-13 13:26N 39°47' E 025°57'0 0.0
2014-Sep-13 12:33N 39°47' E 025°57'0 0.0
2014-Sep-13 11:33N 39°47' E 025°57'32 4.0
2014-Sep-13 03:28N 39°21' E 025°32'3115.3
2014-Sep-13 01:26N 38°53' E 025°14'3215.5
2014-Sep-12 23:24N 38°25' E 024°55'1315.4
2014-Sep-12 22:32N 38°13' E 024°48'2015.8
2014-Sep-12 21:17N 37°55' E 024°37'1115.4
2014-Sep-12 20:33N 37°44' E 024°33'1515.4
2014-Sep-12 19:33N 37°31' E 024°23'1615.3
2014-Sep-12 18:30N 37°17' E 024°13'1515.5
2014-Sep-12 17:33N 37°03' E 024°08'1615.3
2014-Sep-12 16:32N 36°48' E 024°01'1414.8
2014-Sep-12 15:33N 36°38' E 023°48'1715.6
2014-Sep-12 14:30N 36°29' E 023°31'3014.1
2014-Sep-12 12:22N 36°25' E 022°54'52515.9
2014-Sep-11 03:24N 37°01' E 012°00'9816.6
2014-Sep-10 21:31N 37°35' E 010°05'1717.3
2014-Sep-10 20:33N 37°36' E 009°44'1717.1
2014-Sep-10 19:33N 37°37' E 009°23'3416.7
2014-Sep-10 17:33N 37°36' E 008°40'19916.4
2014-Sep-10 05:26N 37°12' E 004°32'3617.2
2014-Sep-10 03:19N 37°07' E 003°47'1616.6
2014-Sep-10 02:22N 37°05' E 003°27'1517.7
2014-Sep-10 01:32N 37°03' E 003°09'1818.1
2014-Sep-10 00:33N 37°00' E 002°47'1717.3
2014-Sep-09 23:33N 36°58' E 002°25'8316.5
2014-Sep-09 18:33N 36°45' E 000°43'1716.6
2014-Sep-09 17:31N 36°43' E 000°22'1616.2
2014-Sep-09 16:33N 36°40' E 000°03'1616.0
2014-Sep-09 15:32N 36°38' W 000°17'1716.3
2014-Sep-09 14:30N 36°35' W 000°38'22811.1
2014-Sep-08 18:03N 36°05' W 005°18'1 2.7
2014-Sep-08 17:33N 36°05' W 005°16'7 3.0
2014-Sep-08 15:10N 35°60' W 005°22'  
2014-Sep-05 18:32N 36°01' W 005°22'  

Dump ship's entire track history